Jonesboro, Texas
Current Conditions -  °F | °C
As of 2:15 AM on Tuesday 27 Jan 2015 (Local Time) from KGOP Reporting Station
Clear Clear  
Wind Chill:   Ceiling: Unl
Heat Index:   Visibility: 10mi
Dew Point:   Wind: 0mph
Humidity: 66%   Direction: NA
Pressure: 30.16"   Gusts: NA
Location:  31.61°N, 97.88°W
Report Text: KGOP 270815Z AUTO 00000KT 10SM CLR 09/03 A3016 RMK AO2
Loading
Personal Weather Stations






























Interactive Weather Map New forecast layout! Learn more

10-Day Weather Forecast

Advertisements
Track Severe Weather on mobile